Time;durP1;ratioP1;P1;durP2;ratioP2;P2;SDS_P1;SDS_P2;PMS_P1;PMS_P2;Temp;Humidity;BMP_temperature;BMP_pressure;BME280_temperature;BME280_humidity;BME280_pressure;Samples;Min_cycle;Max_cycle;Signal;HPM_P1;HPM_P2
2022/03/15 00:02:17;;;;;;;9.93;5.00;;;4.60;99.90;;;;;;5036539;28;20568;-44
2022/03/15 00:04:42;;;;;;;11.17;4.87;;;4.60;99.90;;;;;;5036214;28;20757;-44
2022/03/15 00:07:13;;;;;;;14.60;5.57;;;4.60;99.90;;;;;;5036633;28;20215;-45
2022/03/15 00:09:38;;;;;;;9.77;4.57;;;4.60;99.90;;;;;;5036420;28;20163;-44
2022/03/15 00:12:07;;;;;;;10.53;5.57;;;4.60;99.90;;;;;;5018417;28;20260;-45
2022/03/15 00:14:35;;;;;;;8.87;4.83;;;4.60;99.90;;;;;;5036053;28;20183;-45
2022/03/15 00:17:05;;;;;;;8.17;4.60;;;4.60;99.90;;;;;;5036406;28;20185;-45
2022/03/15 00:19:33;;;;;;;7.43;4.60;;;4.60;99.90;;;;;;5036747;28;20165;-45
2022/03/15 00:21:59;;;;;;;9.73;4.87;;;4.60;99.90;;;;;;5036800;28;20181;-45
2022/03/15 00:24:25;;;;;;;10.47;5.00;;;4.50;99.90;;;;;;5039209;28;20226;-45
2022/03/15 00:26:51;;;;;;;14.13;5.23;;;4.50;99.90;;;;;;5044942;28;20181;-45
2022/03/15 00:29:18;;;;;;;11.87;5.10;;;4.50;99.90;;;;;;5041360;28;20229;-42
2022/03/15 00:31:47;;;;;;;10.20;4.23;;;4.50;99.90;;;;;;5036396;28;20169;-44
2022/03/15 00:34:12;;;;;;;11.83;3.97;;;4.40;99.90;;;;;;5036230;28;20249;-45
2022/03/15 00:36:38;;;;;;;9.67;5.03;;;4.40;99.90;;;;;;5036551;28;20525;-46
2022/03/15 00:39:05;;;;;;;8.40;4.87;;;4.40;99.90;;;;;;5036570;28;20223;-44
2022/03/15 00:41:31;;;;;;;9.53;4.80;;;4.40;99.90;;;;;;5018519;28;20177;-44
2022/03/15 00:43:56;;;;;;;7.43;4.23;;;4.40;99.90;;;;;;5036242;28;20183;-43
2022/03/15 00:46:22;;;;;;;16.20;5.03;;;4.30;99.90;;;;;;5036368;28;20191;-44
2022/03/15 00:48:47;;;;;;;9.67;5.23;;;4.30;99.90;;;;;;5035996;28;20566;-45
2022/03/15 00:51:13;;;;;;;14.20;5.47;;;4.30;99.90;;;;;;5035920;28;20180;-46
2022/03/15 00:53:38;;;;;;;7.13;4.50;;;4.30;99.90;;;;;;5036051;28;20709;-46
2022/03/15 00:56:04;;;;;;;14.47;5.60;;;4.30;99.90;;;;;;5035919;28;20187;-45
2022/03/15 00:58:30;;;;;;;11.07;5.17;;;4.20;99.90;;;;;;5035977;28;20692;-44
2022/03/15 01:00:56;;;;;;;14.53;5.83;;;4.30;99.90;;;;;;5036051;28;20181;-47
2022/03/15 01:03:22;;;;;;;10.07;5.27;;;4.20;99.90;;;;;;5034279;28;20615;-44
2022/03/15 01:05:48;;;;;;;7.20;4.77;;;4.20;99.90;;;;;;5035539;28;20173;-45
2022/03/15 01:08:14;;;;;;;8.03;4.73;;;4.20;99.90;;;;;;5035695;28;20215;-47
2022/03/15 01:10:41;;;;;;;6.93;4.53;;;4.20;99.90;;;;;;5035390;28;20523;-47
2022/03/15 01:13:06;;;;;;;11.90;5.23;;;4.20;99.90;;;;;;5035258;28;20173;-45
2022/03/15 01:15:39;;;;;;;8.00;4.80;;;4.20;99.90;;;;;;5035278;28;20203;-46
2022/03/15 01:18:04;;;;;;;11.57;5.03;;;4.10;99.90;;;;;;5035515;28;20214;-46
2022/03/15 01:20:30;;;;;;;10.87;5.13;;;4.10;99.90;;;;;;5035147;28;20181;-44
2022/03/15 01:22:56;;;;;;;11.03;5.20;;;4.10;99.90;;;;;;5035207;28;20181;-45
2022/03/15 01:25:22;;;;;;;8.93;4.87;;;4.10;99.90;;;;;;5035326;28;20176;-44
2022/03/15 01:27:49;;;;;;;8.37;4.37;;;4.10;99.90;;;;;;5017187;28;20595;-45
2022/03/15 01:30:15;;;;;;;9.83;4.87;;;4.00;99.90;;;;;;5035266;28;20180;-45
2022/03/15 01:32:40;;;;;;;6.07;4.47;;;4.00;99.90;;;;;;5034745;28;20193;-44
2022/03/15 01:35:06;;;;;;;10.77;5.03;;;4.00;99.90;;;;;;5034949;28;20175;-47
2022/03/15 01:37:32;;;;;;;10.43;4.57;;;4.00;99.90;;;;;;5034965;28;20196;-45
2022/03/15 01:39:58;;;;;;;10.00;5.13;;;4.00;99.90;;;;;;5034720;28;20181;-45
2022/03/15 01:42:23;;;;;;;13.33;5.87;;;3.90;99.90;;;;;;5034609;28;20192;-47
2022/03/15 01:44:49;;;;;;;12.47;6.03;;;3.90;99.90;;;;;;5016974;28;20184;-45
2022/03/15 01:47:17;;;;;;;10.33;5.27;;;3.90;99.90;;;;;;5034938;28;20279;-47
2022/03/15 01:49:43;;;;;;;17.30;5.90;;;3.90;99.90;;;;;;5034766;28;20580;-43
2022/03/15 01:52:12;;;;;;;9.03;5.80;;;3.90;99.90;;;;;;5016795;28;20181;-46
2022/03/15 01:54:40;;;;;;;9.90;4.80;;;3.90;99.90;;;;;;5034505;28;20173;-46
2022/03/15 01:57:07;;;;;;;11.73;5.97;;;3.90;99.90;;;;;;5034606;28;20280;-45
2022/03/15 01:59:34;;;;;;;14.63;5.70;;;3.90;99.90;;;;;;5035215;28;20764;-45
2022/03/15 02:01:59;;;;;;;11.97;5.83;;;3.90;99.90;;;;;;5034766;28;20172;-45
2022/03/15 02:04:25;;;;;;;11.50;5.37;;;4.00;99.90;;;;;;5034794;28;20330;-45
2022/03/15 02:07:01;;;;;;;8.20;5.17;;;4.00;99.90;;;;;;5017365;28;20181;-45
2022/03/15 02:09:27;;;;;;;11.87;5.33;;;4.00;99.90;;;;;;5035075;28;20531;-47
2022/03/15 02:11:53;;;;;;;11.50;5.30;;;4.00;99.90;;;;;;5034685;28;20185;-43
2022/03/15 02:14:19;;;;;;;9.60;5.07;;;4.00;99.90;;;;;;5034499;28;20235;-45
2022/03/15 02:16:45;;;;;;;14.20;5.30;;;4.00;99.90;;;;;;5034738;28;20568;-44
2022/03/15 02:19:10;;;;;;;13.57;5.07;;;4.00;99.90;;;;;;5034563;28;20185;-47
2022/03/15 02:21:36;;;;;;;12.93;5.37;;;4.00;99.90;;;;;;5000673;28;20187;-44
2022/03/15 02:24:03;;;;;;;8.67;4.90;;;4.00;99.90;;;;;;5034523;28;20172;-46
2022/03/15 02:26:28;;;;;;;7.90;4.70;;;4.00;99.90;;;;;;5035037;28;20589;-45
2022/03/15 02:28:54;;;;;;;12.70;5.10;;;4.00;99.90;;;;;;5034372;28;20205;-47
2022/03/15 02:31:20;;;;;;;9.63;5.23;;;4.00;99.90;;;;;;5034456;28;20184;-45
2022/03/15 02:33:47;;;;;;;11.40;5.23;;;4.00;99.90;;;;;;5016624;28;20188;-43
2022/03/15 02:36:12;;;;;;;7.93;5.00;;;4.00;99.90;;;;;;5034565;28;20189;-45
2022/03/15 02:38:38;;;;;;;8.17;4.50;;;4.00;99.90;;;;;;5034410;28;20201;-46
2022/03/15 02:41:03;;;;;;;12.53;5.03;;;4.00;99.90;;;;;;5034378;28;20187;-45
2022/03/15 02:43:29;;;;;;;6.37;4.60;;;4.00;99.90;;;;;;5034463;28;20215;-45
2022/03/15 02:45:55;;;;;;;8.50;4.87;;;4.00;99.90;;;;;;5034512;28;20687;-44
2022/03/15 02:48:20;;;;;;;13.17;5.43;;;4.00;99.90;;;;;;5033965;28;20204;-45
2022/03/15 02:50:47;;;;;;;10.60;4.93;;;4.00;99.90;;;;;;5017028;28;20173;-45
2022/03/15 02:53:12;;;;;;;11.90;4.57;;;4.00;99.90;;;;;;5034624;28;20181;-47
2022/03/15 02:55:38;;;;;;;11.23;5.20;;;4.00;99.90;;;;;;5034220;28;20177;-45
2022/03/15 02:58:03;;;;;;;11.53;5.17;;;3.90;99.90;;;;;;5016565;28;20197;-46
2022/03/15 03:00:29;;;;;;;16.50;5.10;;;4.00;99.90;;;;;;5034239;28;20267;-47
2022/03/15 03:02:55;;;;;;;8.73;4.50;;;3.90;99.90;;;;;;5034289;28;20195;-45
2022/03/15 03:05:21;;;;;;;11.90;4.43;;;4.00;99.90;;;;;;5033748;28;20275;-47
2022/03/15 03:07:47;;;;;;;11.30;5.23;;;4.00;99.90;;;;;;5034058;28;20205;-46
2022/03/15 03:10:16;;;;;;;11.37;5.37;;;4.00;99.90;;;;;;5033887;28;20180;-44
2022/03/15 03:12:42;;;;;;;8.17;4.57;;;4.00;99.90;;;;;;5033895;28;20188;-47
2022/03/15 03:15:12;;;;;;;7.10;4.60;;;4.00;99.90;;;;;;5034036;28;20648;-46
2022/03/15 03:17:41;;;;;;;8.07;4.50;;;4.00;99.90;;;;;;5033814;28;20292;-44
2022/03/15 03:20:09;;;;;;;7.93;4.37;;;4.00;99.90;;;;;;5034763;28;20177;-43
2022/03/15 03:22:36;;;;;;;11.93;4.73;;;4.00;99.90;;;;;;5035711;28;20181;-45
2022/03/15 03:25:03;;;;;;;9.93;4.63;;;4.00;99.90;;;;;;5021545;28;20243;-45
2022/03/15 03:27:29;;;;;;;7.70;3.73;;;4.00;99.90;;;;;;5043573;28;20208;-46
2022/03/15 03:29:58;;;;;;;7.13;4.43;;;4.00;99.90;;;;;;5038334;28;20520;-45
2022/03/15 03:32:26;;;;;;;7.60;4.23;;;4.00;99.90;;;;;;5038098;28;20196;-46
2022/03/15 03:34:56;;;;;;;12.23;4.77;;;4.00;99.90;;;;;;5019642;28;20182;-43
2022/03/15 03:37:23;;;;;;;10.23;4.27;;;4.10;99.90;;;;;;5037937;28;20280;-46
2022/03/15 03:39:49;;;;;;;9.07;3.97;;;4.00;99.90;;;;;;5037697;28;20188;-46
2022/03/15 03:42:14;;;;;;;10.50;4.67;;;4.10;99.90;;;;;;5037982;28;20200;-46
2022/03/15 03:44:43;;;;;;;12.93;4.20;;;4.10;99.90;;;;;;5037647;28;20637;-46
2022/03/15 03:47:09;;;;;;;9.67;4.30;;;4.10;99.90;;;;;;5037203;28;20201;-46
2022/03/15 03:49:35;;;;;;;9.83;4.23;;;4.10;99.90;;;;;;5037438;28;20177;-44
2022/03/15 03:52:01;;;;;;;10.60;4.00;;;4.10;99.90;;;;;;5019494;28;20177;-44
2022/03/15 03:54:27;;;;;;;8.20;3.93;;;4.10;99.90;;;;;;5019744;28;20260;-46
2022/03/15 03:56:52;;;;;;;8.87;4.17;;;4.10;99.90;;;;;;5037032;28;20208;-44
2022/03/15 03:59:18;;;;;;;10.00;3.67;;;4.20;99.90;;;;;;5037125;28;20185;-45
2022/03/15 04:01:44;;;;;;;9.87;4.07;;;4.20;99.90;;;;;;5037166;28;20181;-45
2022/03/15 04:04:10;;;;;;;7.40;4.17;;;4.20;99.90;;;;;;5037214;28;20180;-47
2022/03/15 04:06:39;;;;;;;9.77;4.33;;;4.20;99.90;;;;;;5037053;28;20173;-46
2022/03/15 04:09:07;;;;;;;8.20;3.83;;;4.20;99.90;;;;;;5019045;28;20216;-47
2022/03/15 04:11:32;;;;;;;8.03;4.40;;;4.20;99.90;;;;;;5019082;28;20184;-47
2022/03/15 04:13:59;;;;;;;8.73;3.63;;;4.20;99.90;;;;;;5037666;28;20177;-45
2022/03/15 04:16:26;;;;;;;5.77;3.27;;;4.20;99.90;;;;;;5036846;28;20180;-44
2022/03/15 04:18:52;;;;;;;14.03;4.20;;;4.20;99.90;;;;;;5019105;28;20201;-46
2022/03/15 04:21:18;;;;;;;9.23;3.90;;;4.30;99.90;;;;;;5036761;28;20188;-46
2022/03/15 04:23:45;;;;;;;11.83;3.27;;;4.30;99.90;;;;;;5037001;28;20264;-46
2022/03/15 04:26:11;;;;;;;7.33;3.20;;;4.30;99.90;;;;;;5036842;28;20174;-45
2022/03/15 04:28:36;;;;;;;5.53;3.17;;;4.40;99.90;;;;;;5036620;28;20609;-46
2022/03/15 04:31:03;;;;;;;6.13;2.77;;;4.40;99.90;;;;;;5036421;28;20216;-47
2022/03/15 04:33:28;;;;;;;8.90;3.00;;;4.50;99.90;;;;;;5036362;28;20251;-44
2022/03/15 04:35:54;;;;;;;8.53;2.40;;;4.60;99.90;;;;;;5036643;28;20181;-45
2022/03/15 04:38:20;;;;;;;7.40;2.77;;;4.70;99.90;;;;;;5036088;28;20593;-47
2022/03/15 04:40:45;;;;;;;8.30;2.93;;;4.70;99.90;;;;;;5036522;28;20188;-46
2022/03/15 04:43:12;;;;;;;6.73;2.87;;;4.80;99.90;;;;;;5036527;28;20184;-41
2022/03/15 04:45:37;;;;;;;6.90;2.80;;;4.80;99.90;;;;;;5035804;28;20200;-42
2022/03/15 04:48:04;;;;;;;3.07;2.17;;;4.90;99.90;;;;;;5035367;28;20220;-41
2022/03/15 04:50:30;;;;;;;4.73;2.67;;;4.90;99.90;;;;;;5035714;28;20184;-42
2022/03/15 04:52:56;;;;;;;6.53;3.20;;;5.00;99.90;;;;;;5036185;28;20173;-42
2022/03/15 04:55:22;;;;;;;6.03;2.37;;;5.00;99.90;;;;;;5035632;28;20183;-40
2022/03/15 04:57:47;;;;;;;12.10;2.80;;;5.10;99.90;;;;;;5035208;28;20251;-44
2022/03/15 05:00:14;;;;;;;7.20;2.87;;;5.10;99.90;;;;;;5035168;28;20180;-39
2022/03/15 05:02:41;;;;;;;5.00;2.67;;;5.10;99.90;;;;;;5035263;28;20169;-41
2022/03/15 05:05:08;;;;;;;6.20;3.20;;;5.20;99.90;;;;;;5035126;28;20263;-44
2022/03/15 05:07:34;;;;;;;6.70;2.40;;;5.10;99.90;;;;;;5034970;28;20681;-42
2022/03/15 05:12:45;;;;;;;10.43;2.80;;;5.20;99.90;;;;;;5035301;28;20169;-40
2022/03/15 05:15:11;;;;;;;4.83;2.50;;;5.20;99.90;;;;;;5035235;28;20192;-40
2022/03/15 05:17:37;;;;;;;8.23;2.70;;;5.20;99.90;;;;;;5034894;28;20684;-43
2022/03/15 05:20:07;;;;;;;9.03;2.67;;;5.20;99.90;;;;;;5034922;28;20268;-41
2022/03/15 05:22:33;;;;;;;4.17;2.27;;;5.20;99.90;;;;;;5035117;28;20169;-40
2022/03/15 05:24:58;;;;;;;4.70;2.47;;;5.20;99.90;;;;;;5034953;28;20231;-39
2022/03/15 05:27:25;;;;;;;6.33;3.00;;;5.20;99.90;;;;;;5034538;28;20629;-39
2022/03/15 05:29:51;;;;;;;5.43;2.70;;;5.20;99.90;;;;;;5034827;28;20703;-41
2022/03/15 05:32:17;;;;;;;7.83;2.67;;;5.20;99.90;;;;;;5034734;28;20181;-40
2022/03/15 05:34:42;;;;;;;10.17;2.93;;;5.20;99.90;;;;;;5034999;28;20614;-40
2022/03/15 05:37:08;;;;;;;8.30;3.40;;;5.20;99.90;;;;;;5034606;28;20193;-39
2022/03/15 05:39:34;;;;;;;6.60;3.00;;;5.20;99.90;;;;;;5034548;28;20543;-39
2022/03/15 05:42:00;;;;;;;6.07;3.10;;;5.20;99.90;;;;;;5034823;28;20185;-41
2022/03/15 05:44:26;;;;;;;8.00;3.40;;;5.20;99.90;;;;;;5034812;28;20184;-40
2022/03/15 05:46:52;;;;;;;9.90;3.40;;;5.20;99.90;;;;;;5034328;28;20256;-41
2022/03/15 05:49:18;;;;;;;6.03;3.40;;;5.10;99.90;;;;;;5035038;28;20296;-46
2022/03/15 05:51:44;;;;;;;8.53;3.87;;;5.10;99.90;;;;;;5034120;28;20196;-44
2022/03/15 05:54:09;;;;;;;7.70;3.47;;;5.10;99.90;;;;;;5034130;28;20230;-44
2022/03/15 05:56:35;;;;;;;7.53;4.03;;;5.10;99.90;;;;;;5016767;28;20181;-45
2022/03/15 05:59:01;;;;;;;6.87;3.17;;;5.10;99.90;;;;;;5034060;28;20224;-46
2022/03/15 06:01:27;;;;;;;11.30;3.50;;;5.10;99.90;;;;;;5034041;28;20212;-44
2022/03/15 06:03:53;;;;;;;8.10;3.10;;;5.10;99.90;;;;;;5034352;28;20192;-47
2022/03/15 06:06:21;;;;;;;5.53;2.67;;;5.10;99.90;;;;;;5034213;28;20181;-47
2022/03/15 06:08:48;;;;;;;6.80;3.13;;;5.10;99.90;;;;;;5034159;28;20228;-45
2022/03/15 06:11:15;;;;;;;11.50;3.37;;;5.10;99.90;;;;;;5034197;28;20184;-43
2022/03/15 06:13:40;;;;;;;8.77;2.83;;;5.20;99.90;;;;;;5034142;28;20510;-44
2022/03/15 06:16:06;;;;;;;4.70;3.07;;;5.20;99.90;;;;;;5033851;28;20227;-43
2022/03/15 06:18:31;;;;;;;9.37;3.13;;;5.20;99.90;;;;;;5033888;28;20281;-44
2022/03/15 06:20:57;;;;;;;5.93;3.00;;;5.20;99.90;;;;;;5033760;28;20177;-43
2022/03/15 06:23:24;;;;;;;6.20;3.20;;;5.20;99.90;;;;;;5034008;28;20235;-46
2022/03/15 06:25:49;;;;;;;9.03;3.43;;;5.20;99.90;;;;;;5035028;28;20172;-46
2022/03/15 06:28:15;;;;;;;7.60;3.50;;;5.30;99.90;;;;;;5034793;28;20216;-45
2022/03/15 06:30:41;;;;;;;8.70;3.30;;;5.30;99.90;;;;;;5034297;28;20181;-43
2022/03/15 06:33:07;;;;;;;9.90;3.17;;;5.30;99.90;;;;;;5033660;28;20181;-44
2022/03/15 06:35:33;;;;;;;6.80;3.53;;;5.30;99.90;;;;;;5033874;28;20179;-46
2022/03/15 06:38:00;;;;;;;8.87;3.70;;;5.40;99.90;;;;;;5033619;28;20629;-44
2022/03/15 06:40:26;;;;;;;6.33;4.17;;;5.40;99.90;;;;;;5034195;28;20201;-45
2022/03/15 06:42:55;;;;;;;7.50;3.33;;;5.40;99.90;;;;;;5033756;28;20188;-42
2022/03/15 06:45:22;;;;;;;9.37;4.37;;;5.50;99.90;;;;;;5033685;28;20541;-43
2022/03/15 06:47:48;;;;;;;13.90;4.67;;;5.50;99.90;;;;;;5033577;28;20220;-46
2022/03/15 06:50:15;;;;;;;10.20;4.10;;;5.50;99.90;;;;;;5015709;28;20176;-43
2022/03/15 06:52:43;;;;;;;6.47;3.97;;;5.50;99.90;;;;;;5033647;28;20200;-45
2022/03/15 06:55:10;;;;;;;8.63;4.17;;;5.50;99.90;;;;;;5033621;28;20177;-45
2022/03/15 06:57:37;;;;;;;10.07;4.27;;;5.50;99.90;;;;;;5033887;28;20196;-44
2022/03/15 07:00:04;;;;;;;8.27;4.03;;;5.60;99.90;;;;;;5033888;28;20550;-44
2022/03/15 07:02:30;;;;;;;7.87;4.03;;;5.60;99.90;;;;;;5037543;28;20173;-45
2022/03/15 07:04:56;;;;;;;7.43;3.70;;;5.60;99.90;;;;;;5037501;28;20235;-46
2022/03/15 07:07:21;;;;;;;7.70;3.60;;;5.60;99.90;;;;;;5037214;28;20595;-45
2022/03/15 07:09:47;;;;;;;8.90;3.57;;;5.70;99.90;;;;;;5037869;28;20632;-45
2022/03/15 07:12:13;;;;;;;6.70;3.53;;;5.70;99.90;;;;;;5037682;28;20212;-48
2022/03/15 07:14:39;;;;;;;5.30;3.67;;;5.80;99.90;;;;;;5037339;28;20173;-47
2022/03/15 07:17:04;;;;;;;7.60;3.60;;;5.80;99.90;;;;;;5037431;28;20228;-45
2022/03/15 07:19:30;;;;;;;7.60;3.97;;;5.80;99.90;;;;;;5037262;28;20215;-46
2022/03/15 07:21:56;;;;;;;11.13;3.83;;;5.90;99.90;;;;;;5037767;28;20184;-45
2022/03/15 07:24:22;;;;;;;9.57;3.93;;;5.90;99.90;;;;;;5037355;28;20191;-47
2022/03/15 07:26:47;;;;;;;7.30;4.10;;;6.00;99.90;;;;;;5037033;28;20189;-46
2022/03/15 07:29:13;;;;;;;9.03;4.37;;;6.00;99.90;;;;;;5037038;28;20291;-45
2022/03/15 07:31:39;;;;;;;7.80;4.27;;;6.00;99.90;;;;;;5037017;28;20173;-44
2022/03/15 07:34:04;;;;;;;6.90;4.03;;;6.10;99.90;;;;;;5037016;28;20201;-46
2022/03/15 07:36:30;;;;;;;8.60;4.07;;;6.10;99.90;;;;;;5037165;28;20169;-44
2022/03/15 07:38:55;;;;;;;8.80;4.20;;;6.20;99.90;;;;;;5036813;28;20208;-45
2022/03/15 07:41:23;;;;;;;10.23;4.53;;;6.20;99.90;;;;;;5036720;28;20236;-45
2022/03/15 07:47:48;;;;;;;7.30;3.17;;;6.30;99.90;;;;;;5036692;28;20200;-45
2022/03/15 07:50:13;;;;;;;8.13;3.80;;;6.30;99.90;;;;;;5036800;28;20564;-42
2022/03/15 07:52:39;;;;;;;10.43;4.37;;;6.40;99.90;;;;;;5036802;28;20234;-46
2022/03/15 07:55:05;;;;;;;8.70;4.30;;;6.40;99.90;;;;;;5036846;28;20188;-45
2022/03/15 07:57:31;;;;;;;9.03;4.27;;;6.40;99.90;;;;;;5036774;28;20560;-43
2022/03/15 07:59:57;;;;;;;7.63;4.20;;;6.50;99.90;;;;;;5036691;28;20177;-43
2022/03/15 08:02:22;;;;;;;11.47;4.83;;;6.50;99.90;;;;;;5018621;28;20190;-44
2022/03/15 08:04:48;;;;;;;10.30;4.80;;;6.60;99.90;;;;;;5036548;28;20177;-44
2022/03/15 08:07:13;;;;;;;13.83;4.63;;;6.60;99.90;;;;;;5036673;28;20206;-47
2022/03/15 08:09:39;;;;;;;10.47;3.17;;;6.70;99.90;;;;;;5036253;28;20228;-46
2022/03/15 08:12:06;;;;;;;9.73;3.80;;;6.70;99.90;;;;;;5035523;28;20169;-45
2022/03/15 08:14:31;;;;;;;8.77;3.60;;;6.70;99.90;;;;;;5018339;28;20181;-47
2022/03/15 08:16:57;;;;;;;9.87;3.90;;;6.70;99.90;;;;;;5036300;28;20206;-45
2022/03/15 08:19:23;;;;;;;5.50;2.97;;;6.80;99.90;;;;;;5036301;28;20284;-43
2022/03/15 08:21:48;;;;;;;7.20;3.70;;;6.80;99.90;;;;;;5036632;28;20298;-44
2022/03/15 08:24:14;;;;;;;10.87;4.70;;;6.80;99.90;;;;;;5036196;28;20184;-44
2022/03/15 08:26:48;;;;;;;9.50;4.17;;;6.90;99.90;;;;;;5036211;28;20177;-46
2022/03/15 08:29:14;;;;;;;6.67;4.20;;;7.00;99.90;;;;;;5032137;28;20304;-47
2022/03/15 08:31:39;;;;;;;7.40;3.67;;;7.00;99.90;;;;;;5036962;28;20203;-44
2022/03/15 08:34:05;;;;;;;10.53;4.70;;;7.00;99.90;;;;;;5035763;28;20252;-45
2022/03/15 08:36:30;;;;;;;9.87;4.67;;;7.00;99.90;;;;;;5036051;28;20260;-44
2022/03/15 08:38:56;;;;;;;7.57;4.30;;;7.10;99.90;;;;;;5018006;28;20202;-46
2022/03/15 08:41:22;;;;;;;9.30;4.27;;;7.10;99.90;;;;;;5035758;28;20538;-44
2022/03/15 08:43:47;;;;;;;9.70;4.03;;;7.10;99.90;;;;;;5035640;28;20244;-42
2022/03/15 08:46:13;;;;;;;8.63;3.90;;;7.10;99.90;;;;;;5035670;28;20181;-40
2022/03/15 08:48:38;;;;;;;5.53;3.40;;;7.10;99.90;;;;;;5035490;28;20264;-42
2022/03/15 08:51:04;;;;;;;6.80;3.13;;;7.10;99.90;;;;;;5035838;28;20186;-40
2022/03/15 08:53:32;;;;;;;6.57;3.40;;;7.10;99.90;;;;;;5035959;28;20171;-42
2022/03/15 08:55:58;;;;;;;7.83;4.00;;;7.20;99.90;;;;;;5035444;28;20730;-40
2022/03/15 08:58:23;;;;;;;10.43;4.60;;;7.10;99.90;;;;;;5035504;28;20242;-39
2022/03/15 09:00:50;;;;;;;9.13;2.93;;;7.10;99.90;;;;;;5035587;28;20250;-42
2022/03/15 09:03:15;;;;;;;10.87;4.57;;;7.20;99.90;;;;;;5035158;28;20202;-42
2022/03/15 09:05:41;;;;;;;9.03;3.80;;;7.20;99.90;;;;;;5035210;28;20186;-43
2022/03/15 09:08:06;;;;;;;10.10;3.37;;;7.20;99.90;;;;;;5035288;28;20261;-43
2022/03/15 09:10:33;;;;;;;10.73;4.17;;;7.20;99.90;;;;;;5035508;28;20464;-42
2022/03/15 09:12:59;;;;;;;9.53;3.63;;;7.30;99.90;;;;;;5035148;28;20226;-42
2022/03/15 09:15:24;;;;;;;11.83;3.73;;;7.20;99.90;;;;;;5035886;28;20170;-40
2022/03/15 09:17:50;;;;;;;9.80;3.83;;;7.30;99.90;;;;;;5017288;28;20200;-41
2022/03/15 09:20:16;;;;;;;7.90;3.97;;;7.30;99.90;;;;;;5035088;28;20532;-44
2022/03/15 09:22:42;;;;;;;9.20;3.97;;;7.30;99.90;;;;;;5017163;28;20184;-45
2022/03/15 09:25:08;;;;;;;9.33;4.17;;;7.40;99.90;;;;;;5033862;28;20269;-44
2022/03/15 09:27:33;;;;;;;7.60;4.03;;;7.40;99.90;;;;;;5034946;28;20292;-45
2022/03/15 09:30:00;;;;;;;10.00;3.90;;;7.50;99.90;;;;;;5034726;28;20263;-46
2022/03/15 09:32:27;;;;;;;13.57;4.77;;;7.40;99.90;;;;;;5035269;28;20254;-45
2022/03/15 09:34:53;;;;;;;9.00;4.53;;;7.50;99.90;;;;;;5035444;28;20171;-44
2022/03/15 09:37:19;;;;;;;10.17;4.30;;;8.50;99.90;;;;;;5035658;28;20226;-42
2022/03/15 09:39:45;;;;;;;9.13;4.70;;;7.60;99.90;;;;;;5035124;28;20211;-39
2022/03/15 09:42:11;;;;;;;10.20;5.07;;;7.70;99.90;;;;;;5035001;28;20159;-40
2022/03/15 09:44:40;;;;;;;10.30;4.60;;;7.70;99.90;;;;;;5016936;28;20179;-40
2022/03/15 09:47:07;;;;;;;11.87;5.33;;;7.70;99.90;;;;;;5034430;28;20204;-43
2022/03/15 09:49:33;;;;;;;13.80;5.57;;;7.80;99.90;;;;;;5034378;28;20221;-41
2022/03/15 09:51:59;;;;;;;13.07;5.60;;;7.80;99.90;;;;;;5034751;28;20634;-40
2022/03/15 09:54:26;;;;;;;10.30;5.13;;;7.90;99.90;;;;;;5034502;28;20175;-41
2022/03/15 09:56:53;;;;;;;10.13;4.70;;;8.00;99.90;;;;;;5034365;28;20627;-41
2022/03/15 09:59:21;;;;;;;8.50;4.40;;;8.10;99.90;;;;;;5034405;28;20175;-40
2022/03/15 10:01:52;;;;;;;12.43;5.10;;;8.10;99.90;;;;;;5034225;28;20162;-40
2022/03/15 10:04:21;;;;;;;9.17;5.10;;;8.20;99.90;;;;;;5034144;28;20187;-41
2022/03/15 10:06:47;;;;;;;11.30;4.37;;;8.20;99.90;;;;;;5034269;28;20203;-41
2022/03/15 10:09:14;;;;;;;12.97;5.00;;;8.30;99.90;;;;;;5034235;28;20240;-42
2022/03/15 10:11:40;;;;;;;11.43;4.73;;;8.30;99.90;;;;;;5034050;28;20555;-42
2022/03/15 10:14:06;;;;;;;8.53;4.33;;;8.40;99.90;;;;;;5034140;28;20586;-41
2022/03/15 10:16:34;;;;;;;7.40;5.07;;;8.40;99.90;;;;;;5034712;28;20164;-42
2022/03/15 10:19:01;;;;;;;9.57;4.97;;;8.40;99.90;;;;;;5016326;28;20210;-43
2022/03/15 10:21:39;;;;;;;11.80;6.10;;;8.40;99.90;;;;;;5034019;28;20582;-43
2022/03/15 10:24:07;;;;;;;10.33;5.70;;;8.50;99.90;;;;;;5033852;28;20173;-41
2022/03/15 10:26:38;;;;;;;10.77;6.13;;;8.50;99.90;;;;;;5034037;28;20681;-43
2022/03/15 10:29:04;;;;;;;12.03;4.83;;;8.60;99.90;;;;;;5033685;28;20727;-43
2022/03/15 10:31:30;;;;;;;7.10;3.40;;;8.70;99.90;;;;;;5033977;28;20181;-40
2022/03/15 10:34:01;;;;;;;7.30;5.10;;;8.60;99.90;;;;;;5033594;28;20192;-42
2022/03/15 10:36:34;;;;;;;13.63;5.60;;;8.50;99.90;;;;;;5033649;28;20162;-39
2022/03/15 10:39:00;;;;;;;11.00;5.17;;;8.50;99.90;;;;;;5015835;28;20228;-41
2022/03/15 10:41:26;;;;;;;10.20;5.53;;;8.40;99.90;;;;;;5033683;28;20181;-41
2022/03/15 10:43:53;;;;;;;11.27;5.60;;;8.30;99.90;;;;;;5033668;28;20192;-40
2022/03/15 10:46:24;;;;;;;10.47;5.60;;;8.40;99.90;;;;;;5033545;28;20180;-41
2022/03/15 10:49:01;;;;;;;12.33;5.90;;;8.40;99.90;;;;;;5033667;28;20355;-40
2022/03/15 10:51:27;;;;;;;10.23;5.57;;;8.40;99.90;;;;;;5034022;28;20163;-42
2022/03/15 10:54:03;;;;;;;10.67;6.03;;;8.40;99.90;;;;;;5016170;28;20180;-40
2022/03/15 10:56:30;;;;;;;8.50;4.53;;;8.40;99.90;;;;;;5033884;28;20161;-41
2022/03/15 10:59:03;;;;;;;13.30;4.80;;;8.50;99.90;;;;;;5033299;28;20201;-40
2022/03/15 11:01:38;;;;;;;12.37;5.30;;;8.50;99.90;;;;;;5033425;28;20197;-40
2022/03/15 11:04:12;;;;;;;9.03;4.60;;;8.60;99.90;;;;;;5034158;28;20564;-43
2022/03/15 11:06:41;;;;;;;10.13;5.07;;;8.60;99.90;;;;;;5033485;28;20165;-42
2022/03/15 11:09:27;;;;;;;16.37;7.27;;;8.70;99.90;;;;;;5033455;28;20292;-43
2022/03/15 11:12:07;;;;;;;8.77;5.73;;;8.70;99.90;;;;;;5033502;28;20200;-41
2022/03/15 11:14:40;;;;;;;36.83;20.67;;;8.70;99.90;;;;;;5033816;28;20495;-41
2022/03/15 11:17:18;;;;;;;24.73;12.53;;;8.70;99.90;;;;;;5034086;28;20202;-40
2022/03/15 11:19:52;;;;;;;21.57;11.60;;;8.60;99.90;;;;;;5033355;28;20648;-39
2022/03/15 11:22:21;;;;;;;14.00;6.77;;;8.70;99.90;;;;;;5033470;28;20183;-43
2022/03/15 11:24:57;;;;;;;14.80;6.53;;;8.70;99.90;;;;;;5033161;28;20177;-43
2022/03/15 11:27:26;;;;;;;14.20;6.77;;;8.70;99.90;;;;;;5033314;28;20262;-42
2022/03/15 11:29:56;;;;;;;10.70;6.30;;;8.70;99.90;;;;;;5033098;28;20252;-42
2022/03/15 11:32:22;;;;;;;22.77;14.47;;;8.80;99.90;;;;;;5033174;28;20173;-41
2022/03/15 11:34:49;;;;;;;24.20;15.30;;;8.90;99.90;;;;;;5033163;28;20180;-41
2022/03/15 11:37:16;;;;;;;22.57;13.10;;;8.90;99.90;;;;;;5033582;28;20715;-38
2022/03/15 11:39:42;;;;;;;19.90;10.47;;;8.90;99.90;;;;;;5033144;28;20231;-42
2022/03/15 11:42:12;;;;;;;19.83;10.00;;;8.90;99.90;;;;;;5033272;28;20187;-41
2022/03/15 11:45:07;;;;;;;15.20;7.47;;;8.90;99.90;;;;;;5015619;28;20584;-41
2022/03/15 11:47:52;;;;;;;16.10;9.07;;;8.90;99.90;;;;;;5034014;28;20227;-43
2022/03/15 11:50:21;;;;;;;19.00;10.53;;;8.90;99.90;;;;;;5037617;28;20157;-40
2022/03/15 11:53:07;;;;;;;14.83;8.87;;;8.90;99.90;;;;;;5037313;28;20181;-41
2022/03/15 11:55:51;;;;;;;17.60;8.87;;;8.90;99.90;;;;;;5037621;28;20668;-43
2022/03/15 11:58:28;;;;;;;15.50;9.80;;;9.00;99.90;;;;;;5036811;28;20197;-42
2022/03/15 12:00:57;;;;;;;17.10;9.77;;;8.90;99.90;;;;;;5018793;28;20550;-41
2022/03/15 12:03:23;;;;;;;15.87;9.93;;;8.90;99.90;;;;;;5036690;28;20195;-39
2022/03/15 12:05:53;;;;;;;15.73;8.77;;;9.00;99.90;;;;;;5036614;28;20234;-40
2022/03/15 12:08:26;;;;;;;15.97;10.27;;;9.00;99.90;;;;;;5036486;28;20224;-40
2022/03/15 12:11:00;;;;;;;18.97;8.20;;;9.00;99.90;;;;;;5018641;28;20220;-39
2022/03/15 12:13:35;;;;;;;18.93;8.90;;;9.10;99.90;;;;;;5036914;28;20211;-41
2022/03/15 12:16:13;;;;;;;17.93;11.60;;;9.10;99.90;;;;;;5036184;28;20176;-39
2022/03/15 12:18:50;;;;;;;16.50;9.67;;;9.30;99.90;;;;;;5036377;28;20203;-42
2022/03/15 12:21:16;;;;;;;20.13;9.03;;;9.40;99.90;;;;;;5036499;28;20169;-41
2022/03/15 12:23:46;;;;;;;17.37;8.47;;;9.50;99.90;;;;;;5035977;28;20188;-41
2022/03/15 12:26:26;;;;;;;10.60;6.50;;;9.60;99.90;;;;;;5018905;28;20539;-38
2022/03/15 12:29:04;;;;;;;9.63;5.67;;;9.70;99.90;;;;;;5018200;28;20219;-41
2022/03/15 12:31:35;;;;;;;11.03;6.97;;;9.80;99.90;;;;;;5036260;28;20157;-41
2022/03/15 12:34:09;;;;;;;14.27;6.93;;;9.80;99.90;;;;;;5035850;28;20279;-40
2022/03/15 12:36:37;;;;;;;10.17;7.17;;;9.90;99.90;;;;;;5036147;28;20166;-41
2022/03/15 12:39:15;;;;;;;14.27;7.40;;;10.10;99.90;;;;;;5035851;28;20198;-42
2022/03/15 12:41:40;;;;;;;18.80;8.70;;;10.20;99.90;;;;;;5035783;28;20201;-42
2022/03/15 12:44:07;;;;;;;18.40;7.63;;;10.30;99.90;;;;;;5035704;28;20203;-40
2022/03/15 12:46:36;;;;;;;18.27;9.17;;;10.40;99.90;;;;;;5035550;28;20197;-43
2022/03/15 12:49:16;;;;;;;14.73;6.33;;;10.40;99.90;;;;;;5036391;28;20264;-41
2022/03/15 12:51:43;;;;;;;14.00;6.90;;;10.50;99.90;;;;;;5035915;28;20581;-41
2022/03/15 12:54:13;;;;;;;15.10;7.10;;;10.50;99.90;;;;;;5036649;28;20684;-42
2022/03/15 12:56:47;;;;;;;15.17;7.07;;;10.60;99.90;;;;;;5037460;28;20640;-42
2022/03/15 12:59:18;;;;;;;12.80;7.20;;;10.70;99.90;;;;;;5035961;28;20192;-40